sensor_id;sensor_type;location;lat;lon;timestamp;P1;durP1;ratioP1;P2;durP2;ratioP2
55633;SDS011;41504;53.162;6.788;2023-06-04T00:02:17;9.52;;;4.20;;
55633;SDS011;41504;53.162;6.788;2023-06-04T00:04:43;9.68;;;4.57;;
55633;SDS011;41504;53.162;6.788;2023-06-04T00:07:11;14.80;;;4.85;;
55633;SDS011;41504;53.162;6.788;2023-06-04T00:09:37;8.27;;;4.28;;
55633;SDS011;41504;53.162;6.788;2023-06-04T00:12:06;9.43;;;4.70;;
55633;SDS011;41504;53.162;6.788;2023-06-04T00:14:32;10.32;;;5.63;;
55633;SDS011;41504;53.162;6.788;2023-06-04T00:16:58;10.90;;;5.03;;
55633;SDS011;41504;53.162;6.788;2023-06-04T00:19:24;8.63;;;4.18;;
55633;SDS011;41504;53.162;6.788;2023-06-04T00:21:50;10.32;;;4.05;;
55633;SDS011;41504;53.162;6.788;2023-06-04T00:24:16;9.75;;;3.45;;
55633;SDS011;41504;53.162;6.788;2023-06-04T00:26:45;8.15;;;3.40;;
55633;SDS011;41504;53.162;6.788;2023-06-04T00:29:11;7.10;;;3.33;;
55633;SDS011;41504;53.162;6.788;2023-06-04T00:31:36;6.93;;;3.47;;
55633;SDS011;41504;53.162;6.788;2023-06-04T00:34:09;9.38;;;3.70;;
55633;SDS011;41504;53.162;6.788;2023-06-04T00:36:35;7.85;;;3.75;;
55633;SDS011;41504;53.162;6.788;2023-06-04T00:39:01;10.10;;;3.63;;
55633;SDS011;41504;53.162;6.788;2023-06-04T00:41:27;10.77;;;4.25;;
55633;SDS011;41504;53.162;6.788;2023-06-04T00:43:53;9.15;;;3.13;;
55633;SDS011;41504;53.162;6.788;2023-06-04T00:46:24;9.88;;;3.67;;
55633;SDS011;41504;53.162;6.788;2023-06-04T00:48:52;11.05;;;3.67;;
55633;SDS011;41504;53.162;6.788;2023-06-04T00:51:18;6.82;;;3.60;;
55633;SDS011;41504;53.162;6.788;2023-06-04T00:53:46;9.02;;;3.22;;
55633;SDS011;41504;53.162;6.788;2023-06-04T00:56:13;12.00;;;4.05;;
55633;SDS011;41504;53.162;6.788;2023-06-04T00:58:39;11.02;;;4.18;;
55633;SDS011;41504;53.162;6.788;2023-06-04T01:01:07;12.23;;;4.03;;
55633;SDS011;41504;53.162;6.788;2023-06-04T01:03:55;9.32;;;3.55;;
55633;SDS011;41504;53.162;6.788;2023-06-04T01:09:01;11.07;;;3.95;;
55633;SDS011;41504;53.162;6.788;2023-06-04T01:11:37;8.27;;;4.00;;
55633;SDS011;41504;53.162;6.788;2023-06-04T01:14:05;8.18;;;3.90;;
55633;SDS011;41504;53.162;6.788;2023-06-04T01:17:01;9.77;;;3.83;;
55633;SDS011;41504;53.162;6.788;2023-06-04T01:28:12;8.27;;;3.40;;
55633;SDS011;41504;53.162;6.788;2023-06-04T01:30:41;9.35;;;3.58;;
55633;SDS011;41504;53.162;6.788;2023-06-04T01:33:15;10.05;;;3.78;;
55633;SDS011;41504;53.162;6.788;2023-06-04T01:35:42;10.85;;;4.30;;
55633;SDS011;41504;53.162;6.788;2023-06-04T01:38:08;9.20;;;4.13;;
55633;SDS011;41504;53.162;6.788;2023-06-04T01:40:34;8.05;;;3.95;;
55633;SDS011;41504;53.162;6.788;2023-06-04T01:43:00;8.45;;;3.95;;
55633;SDS011;41504;53.162;6.788;2023-06-04T01:45:27;11.65;;;4.40;;
55633;SDS011;41504;53.162;6.788;2023-06-04T01:47:53;9.75;;;4.22;;
55633;SDS011;41504;53.162;6.788;2023-06-04T01:50:19;8.60;;;3.85;;
55633;SDS011;41504;53.162;6.788;2023-06-04T01:52:45;8.27;;;3.92;;
55633;SDS011;41504;53.162;6.788;2023-06-04T01:55:12;9.63;;;4.00;;
55633;SDS011;41504;53.162;6.788;2023-06-04T01:57:40;11.70;;;3.83;;
55633;SDS011;41504;53.162;6.788;2023-06-04T02:00:06;9.77;;;4.15;;
55633;SDS011;41504;53.162;6.788;2023-06-04T02:02:37;9.60;;;4.00;;
55633;SDS011;41504;53.162;6.788;2023-06-04T02:05:09;11.27;;;4.00;;
55633;SDS011;41504;53.162;6.788;2023-06-04T02:07:39;8.45;;;4.22;;
55633;SDS011;41504;53.162;6.788;2023-06-04T02:10:10;10.70;;;4.57;;
55633;SDS011;41504;53.162;6.788;2023-06-04T02:12:37;9.23;;;3.92;;
55633;SDS011;41504;53.162;6.788;2023-06-04T02:15:04;9.02;;;3.83;;
55633;SDS011;41504;53.162;6.788;2023-06-04T02:17:30;12.50;;;4.95;;
55633;SDS011;41504;53.162;6.788;2023-06-04T02:20:07;10.73;;;4.10;;
55633;SDS011;41504;53.162;6.788;2023-06-04T02:22:36;8.50;;;4.10;;
55633;SDS011;41504;53.162;6.788;2023-06-04T02:25:03;10.77;;;4.13;;
55633;SDS011;41504;53.162;6.788;2023-06-04T02:27:29;10.50;;;4.28;;
55633;SDS011;41504;53.162;6.788;2023-06-04T02:29:55;9.43;;;4.03;;
55633;SDS011;41504;53.162;6.788;2023-06-04T02:32:21;8.35;;;4.32;;
55633;SDS011;41504;53.162;6.788;2023-06-04T02:34:47;12.27;;;4.38;;
55633;SDS011;41504;53.162;6.788;2023-06-04T02:37:14;10.90;;;4.32;;
55633;SDS011;41504;53.162;6.788;2023-06-04T02:39:39;9.40;;;4.53;;
55633;SDS011;41504;53.162;6.788;2023-06-04T02:42:06;10.57;;;4.40;;
55633;SDS011;41504;53.162;6.788;2023-06-04T02:44:32;10.73;;;4.13;;
55633;SDS011;41504;53.162;6.788;2023-06-04T02:46:58;11.20;;;4.70;;
55633;SDS011;41504;53.162;6.788;2023-06-04T02:49:23;9.70;;;4.10;;
55633;SDS011;41504;53.162;6.788;2023-06-04T02:51:53;11.93;;;4.28;;
55633;SDS011;41504;53.162;6.788;2023-06-04T02:54:18;10.02;;;4.50;;
55633;SDS011;41504;53.162;6.788;2023-06-04T02:56:44;12.88;;;4.65;;
55633;SDS011;41504;53.162;6.788;2023-06-04T02:59:10;10.60;;;4.35;;
55633;SDS011;41504;53.162;6.788;2023-06-04T03:01:36;9.48;;;4.25;;
55633;SDS011;41504;53.162;6.788;2023-06-04T03:04:02;8.88;;;4.15;;
55633;SDS011;41504;53.162;6.788;2023-06-04T03:06:30;12.57;;;4.68;;
55633;SDS011;41504;53.162;6.788;2023-06-04T03:09:06;11.65;;;4.70;;
55633;SDS011;41504;53.162;6.788;2023-06-04T03:11:32;10.38;;;5.20;;
55633;SDS011;41504;53.162;6.788;2023-06-04T03:13:58;10.95;;;5.20;;
55633;SDS011;41504;53.162;6.788;2023-06-04T03:16:23;9.80;;;4.97;;
55633;SDS011;41504;53.162;6.788;2023-06-04T03:18:49;11.55;;;5.40;;
55633;SDS011;41504;53.162;6.788;2023-06-04T03:21:15;11.70;;;5.28;;
55633;SDS011;41504;53.162;6.788;2023-06-04T03:23:41;11.80;;;5.68;;
55633;SDS011;41504;53.162;6.788;2023-06-04T03:26:09;12.27;;;5.90;;
55633;SDS011;41504;53.162;6.788;2023-06-04T03:28:37;10.80;;;5.70;;
55633;SDS011;41504;53.162;6.788;2023-06-04T03:31:03;11.48;;;5.97;;
55633;SDS011;41504;53.162;6.788;2023-06-04T03:33:29;10.65;;;5.70;;
55633;SDS011;41504;53.162;6.788;2023-06-04T03:35:55;9.65;;;5.50;;
55633;SDS011;41504;53.162;6.788;2023-06-04T03:38:27;10.57;;;5.45;;
55633;SDS011;41504;53.162;6.788;2023-06-04T03:40:53;11.27;;;5.53;;
55633;SDS011;41504;53.162;6.788;2023-06-04T03:43:19;11.65;;;5.45;;
55633;SDS011;41504;53.162;6.788;2023-06-04T03:45:45;10.52;;;5.72;;
55633;SDS011;41504;53.162;6.788;2023-06-04T03:48:11;10.43;;;5.68;;
55633;SDS011;41504;53.162;6.788;2023-06-04T03:50:37;9.73;;;5.28;;
55633;SDS011;41504;53.162;6.788;2023-06-04T03:53:03;10.10;;;5.65;;
55633;SDS011;41504;53.162;6.788;2023-06-04T03:55:31;12.20;;;5.93;;
55633;SDS011;41504;53.162;6.788;2023-06-04T03:57:57;12.75;;;5.85;;
55633;SDS011;41504;53.162;6.788;2023-06-04T04:00:23;12.07;;;5.45;;
55633;SDS011;41504;53.162;6.788;2023-06-04T04:02:49;12.25;;;6.25;;
55633;SDS011;41504;53.162;6.788;2023-06-04T04:05:15;12.88;;;5.95;;
55633;SDS011;41504;53.162;6.788;2023-06-04T04:07:41;14.02;;;6.80;;
55633;SDS011;41504;53.162;6.788;2023-06-04T04:10:07;11.30;;;5.72;;
55633;SDS011;41504;53.162;6.788;2023-06-04T04:12:33;12.52;;;5.68;;
55633;SDS011;41504;53.162;6.788;2023-06-04T04:14:58;13.98;;;6.95;;
55633;SDS011;41504;53.162;6.788;2023-06-04T04:17:25;11.48;;;6.32;;
55633;SDS011;41504;53.162;6.788;2023-06-04T04:19:51;11.85;;;6.32;;
55633;SDS011;41504;53.162;6.788;2023-06-04T04:22:17;9.80;;;5.97;;
55633;SDS011;41504;53.162;6.788;2023-06-04T04:24:43;16.15;;;6.20;;
55633;SDS011;41504;53.162;6.788;2023-06-04T04:27:09;13.90;;;5.95;;
55633;SDS011;41504;53.162;6.788;2023-06-04T04:29:40;10.52;;;5.75;;
55633;SDS011;41504;53.162;6.788;2023-06-04T04:32:11;14.52;;;6.10;;
55633;SDS011;41504;53.162;6.788;2023-06-04T04:34:37;13.95;;;5.63;;
55633;SDS011;41504;53.162;6.788;2023-06-04T04:37:16;13.40;;;6.07;;
55633;SDS011;41504;53.162;6.788;2023-06-04T04:39:46;9.73;;;5.57;;
55633;SDS011;41504;53.162;6.788;2023-06-04T04:42:12;9.65;;;5.75;;
55633;SDS011;41504;53.162;6.788;2023-06-04T04:44:37;14.95;;;6.10;;
55633;SDS011;41504;53.162;6.788;2023-06-04T04:47:06;12.40;;;5.60;;
55633;SDS011;41504;53.162;6.788;2023-06-04T04:49:31;10.80;;;5.63;;
55633;SDS011;41504;53.162;6.788;2023-06-04T04:51:57;10.98;;;6.07;;
55633;SDS011;41504;53.162;6.788;2023-06-04T04:54:23;13.13;;;5.63;;
55633;SDS011;41504;53.162;6.788;2023-06-04T04:56:48;11.48;;;5.47;;
55633;SDS011;41504;53.162;6.788;2023-06-04T04:59:14;13.85;;;5.03;;
55633;SDS011;41504;53.162;6.788;2023-06-04T05:01:40;9.82;;;5.30;;
55633;SDS011;41504;53.162;6.788;2023-06-04T05:04:09;12.40;;;5.45;;
55633;SDS011;41504;53.162;6.788;2023-06-04T05:06:34;11.52;;;5.35;;
55633;SDS011;41504;53.162;6.788;2023-06-04T05:09:02;9.23;;;5.25;;
55633;SDS011;41504;53.162;6.788;2023-06-04T05:11:29;10.07;;;5.10;;
55633;SDS011;41504;53.162;6.788;2023-06-04T05:13:54;11.52;;;5.03;;
55633;SDS011;41504;53.162;6.788;2023-06-04T05:16:20;10.90;;;4.72;;
55633;SDS011;41504;53.162;6.788;2023-06-04T05:18:47;9.63;;;4.97;;
55633;SDS011;41504;53.162;6.788;2023-06-04T05:21:16;10.88;;;5.00;;
55633;SDS011;41504;53.162;6.788;2023-06-04T05:23:43;12.57;;;5.38;;
55633;SDS011;41504;53.162;6.788;2023-06-04T05:26:10;11.55;;;5.60;;
55633;SDS011;41504;53.162;6.788;2023-06-04T05:28:36;11.65;;;5.03;;
55633;SDS011;41504;53.162;6.788;2023-06-04T05:31:01;10.10;;;4.53;;
55633;SDS011;41504;53.162;6.788;2023-06-04T05:33:27;12.93;;;5.32;;
55633;SDS011;41504;53.162;6.788;2023-06-04T05:35:55;12.07;;;5.05;;
55633;SDS011;41504;53.162;6.788;2023-06-04T05:38:23;12.82;;;5.28;;
55633;SDS011;41504;53.162;6.788;2023-06-04T05:40:55;11.45;;;5.32;;
55633;SDS011;41504;53.162;6.788;2023-06-04T05:43:21;10.38;;;4.85;;
55633;SDS011;41504;53.162;6.788;2023-06-04T05:45:48;13.65;;;4.78;;
55633;SDS011;41504;53.162;6.788;2023-06-04T05:48:14;9.63;;;5.30;;
55633;SDS011;41504;53.162;6.788;2023-06-04T05:50:40;12.05;;;4.75;;
55633;SDS011;41504;53.162;6.788;2023-06-04T05:53:05;12.43;;;4.50;;
55633;SDS011;41504;53.162;6.788;2023-06-04T05:55:31;13.40;;;4.93;;
55633;SDS011;41504;53.162;6.788;2023-06-04T05:57:57;11.50;;;4.60;;
55633;SDS011;41504;53.162;6.788;2023-06-04T06:00:23;13.68;;;4.20;;
55633;SDS011;41504;53.162;6.788;2023-06-04T06:02:50;10.68;;;4.40;;
55633;SDS011;41504;53.162;6.788;2023-06-04T06:05:19;8.90;;;3.95;;
55633;SDS011;41504;53.162;6.788;2023-06-04T06:07:45;9.90;;;3.72;;
55633;SDS011;41504;53.162;6.788;2023-06-04T06:10:11;12.63;;;4.22;;
55633;SDS011;41504;53.162;6.788;2023-06-04T06:12:37;11.55;;;3.67;;
55633;SDS011;41504;53.162;6.788;2023-06-04T06:15:06;6.78;;;3.05;;
55633;SDS011;41504;53.162;6.788;2023-06-04T06:17:32;11.63;;;3.67;;
55633;SDS011;41504;53.162;6.788;2023-06-04T06:19:59;11.25;;;3.45;;
55633;SDS011;41504;53.162;6.788;2023-06-04T06:22:24;10.93;;;3.22;;
55633;SDS011;41504;53.162;6.788;2023-06-04T06:24:50;7.95;;;3.28;;
55633;SDS011;41504;53.162;6.788;2023-06-04T06:27:16;10.48;;;3.00;;
55633;SDS011;41504;53.162;6.788;2023-06-04T06:29:43;7.75;;;2.78;;
55633;SDS011;41504;53.162;6.788;2023-06-04T06:32:09;10.80;;;3.03;;
55633;SDS011;41504;53.162;6.788;2023-06-04T06:34:36;11.90;;;2.97;;
55633;SDS011;41504;53.162;6.788;2023-06-04T06:37:06;10.55;;;3.22;;
55633;SDS011;41504;53.162;6.788;2023-06-04T06:39:32;8.70;;;2.92;;
55633;SDS011;41504;53.162;6.788;2023-06-04T06:41:58;9.10;;;2.90;;
55633;SDS011;41504;53.162;6.788;2023-06-04T06:44:23;12.65;;;3.17;;
55633;SDS011;41504;53.162;6.788;2023-06-04T06:46:49;8.45;;;2.75;;
55633;SDS011;41504;53.162;6.788;2023-06-04T06:49:15;8.13;;;2.40;;
55633;SDS011;41504;53.162;6.788;2023-06-04T06:51:41;6.25;;;2.13;;
55633;SDS011;41504;53.162;6.788;2023-06-04T06:54:08;5.55;;;2.17;;
55633;SDS011;41504;53.162;6.788;2023-06-04T06:56:35;6.07;;;2.20;;
55633;SDS011;41504;53.162;6.788;2023-06-04T06:59:07;5.53;;;2.10;;
55633;SDS011;41504;53.162;6.788;2023-06-04T07:01:32;6.72;;;2.13;;
55633;SDS011;41504;53.162;6.788;2023-06-04T07:03:58;5.90;;;2.15;;
55633;SDS011;41504;53.162;6.788;2023-06-04T07:06:24;6.55;;;1.85;;
55633;SDS011;41504;53.162;6.788;2023-06-04T07:08:50;6.35;;;2.13;;
55633;SDS011;41504;53.162;6.788;2023-06-04T07:11:17;4.63;;;1.90;;
55633;SDS011;41504;53.162;6.788;2023-06-04T07:13:43;3.70;;;1.80;;
55633;SDS011;41504;53.162;6.788;2023-06-04T07:16:08;5.55;;;2.30;;
55633;SDS011;41504;53.162;6.788;2023-06-04T07:18:34;3.40;;;1.83;;
55633;SDS011;41504;53.162;6.788;2023-06-04T07:21:00;7.53;;;2.33;;
55633;SDS011;41504;53.162;6.788;2023-06-04T07:23:26;4.53;;;2.00;;
55633;SDS011;41504;53.162;6.788;2023-06-04T07:25:52;3.65;;;1.48;;
55633;SDS011;41504;53.162;6.788;2023-06-04T07:28:18;6.10;;;1.98;;
55633;SDS011;41504;53.162;6.788;2023-06-04T07:30:45;4.65;;;1.67;;
55633;SDS011;41504;53.162;6.788;2023-06-04T07:33:11;5.85;;;2.10;;
55633;SDS011;41504;53.162;6.788;2023-06-04T07:35:39;3.72;;;1.83;;
55633;SDS011;41504;53.162;6.788;2023-06-04T07:38:05;4.18;;;1.83;;
55633;SDS011;41504;53.162;6.788;2023-06-04T07:40:31;6.00;;;2.00;;
55633;SDS011;41504;53.162;6.788;2023-06-04T07:42:56;4.60;;;1.90;;
55633;SDS011;41504;53.162;6.788;2023-06-04T07:45:22;7.63;;;2.35;;
55633;SDS011;41504;53.162;6.788;2023-06-04T07:47:48;4.57;;;1.60;;
55633;SDS011;41504;53.162;6.788;2023-06-04T07:50:14;5.82;;;2.00;;
55633;SDS011;41504;53.162;6.788;2023-06-04T07:52:40;4.95;;;1.95;;
55633;SDS011;41504;53.162;6.788;2023-06-04T07:55:06;6.30;;;2.13;;
55633;SDS011;41504;53.162;6.788;2023-06-04T07:57:36;5.07;;;1.67;;
55633;SDS011;41504;53.162;6.788;2023-06-04T08:00:02;4.40;;;1.80;;
55633;SDS011;41504;53.162;6.788;2023-06-04T08:02:33;5.20;;;1.92;;
55633;SDS011;41504;53.162;6.788;2023-06-04T08:05:00;5.15;;;1.85;;
55633;SDS011;41504;53.162;6.788;2023-06-04T08:07:28;4.72;;;2.03;;
55633;SDS011;41504;53.162;6.788;2023-06-04T08:09:54;7.05;;;1.77;;
55633;SDS011;41504;53.162;6.788;2023-06-04T08:12:21;6.80;;;2.08;;
55633;SDS011;41504;53.162;6.788;2023-06-04T08:14:47;9.38;;;1.90;;
55633;SDS011;41504;53.162;6.788;2023-06-04T08:17:16;5.53;;;1.80;;
55633;SDS011;41504;53.162;6.788;2023-06-04T08:19:42;5.50;;;2.15;;
55633;SDS011;41504;53.162;6.788;2023-06-04T08:22:11;5.00;;;1.85;;
55633;SDS011;41504;53.162;6.788;2023-06-04T08:24:37;4.78;;;1.85;;
55633;SDS011;41504;53.162;6.788;2023-06-04T08:27:02;5.15;;;2.20;;
55633;SDS011;41504;53.162;6.788;2023-06-04T08:29:28;8.60;;;3.42;;
55633;SDS011;41504;53.162;6.788;2023-06-04T08:31:54;5.47;;;2.17;;
55633;SDS011;41504;53.162;6.788;2023-06-04T08:34:20;5.40;;;2.20;;
55633;SDS011;41504;53.162;6.788;2023-06-04T08:36:46;5.80;;;2.10;;
55633;SDS011;41504;53.162;6.788;2023-06-04T08:39:11;6.32;;;2.20;;
55633;SDS011;41504;53.162;6.788;2023-06-04T08:41:44;6.55;;;2.10;;
55633;SDS011;41504;53.162;6.788;2023-06-04T08:44:30;5.70;;;2.17;;
55633;SDS011;41504;53.162;6.788;2023-06-04T08:47:01;7.03;;;2.33;;
55633;SDS011;41504;53.162;6.788;2023-06-04T08:49:33;7.10;;;2.50;;
55633;SDS011;41504;53.162;6.788;2023-06-04T08:52:06;8.85;;;2.67;;
55633;SDS011;41504;53.162;6.788;2023-06-04T08:54:32;6.63;;;2.00;;
55633;SDS011;41504;53.162;6.788;2023-06-04T08:57:01;6.55;;;2.30;;
55633;SDS011;41504;53.162;6.788;2023-06-04T08:59:28;5.15;;;1.98;;
55633;SDS011;41504;53.162;6.788;2023-06-04T09:01:54;4.18;;;1.70;;
55633;SDS011;41504;53.162;6.788;2023-06-04T09:04:26;5.55;;;1.92;;
55633;SDS011;41504;53.162;6.788;2023-06-04T09:06:53;6.13;;;2.17;;
55633;SDS011;41504;53.162;6.788;2023-06-04T09:09:20;6.47;;;2.05;;
55633;SDS011;41504;53.162;6.788;2023-06-04T09:11:49;4.72;;;2.10;;
55633;SDS011;41504;53.162;6.788;2023-06-04T09:14:17;6.85;;;2.08;;
55633;SDS011;41504;53.162;6.788;2023-06-04T09:16:44;6.38;;;2.00;;
55633;SDS011;41504;53.162;6.788;2023-06-04T09:19:11;7.80;;;2.47;;
55633;SDS011;41504;53.162;6.788;2023-06-04T09:24:20;7.57;;;2.28;;
55633;SDS011;41504;53.162;6.788;2023-06-04T09:26:46;7.25;;;2.20;;
55633;SDS011;41504;53.162;6.788;2023-06-04T09:29:12;6.47;;;2.05;;
55633;SDS011;41504;53.162;6.788;2023-06-04T09:31:39;8.50;;;2.00;;
55633;SDS011;41504;53.162;6.788;2023-06-04T09:34:06;6.93;;;1.98;;
55633;SDS011;41504;53.162;6.788;2023-06-04T09:36:35;6.93;;;2.20;;
55633;SDS011;41504;53.162;6.788;2023-06-04T09:39:23;4.65;;;1.90;;
55633;SDS011;41504;53.162;6.788;2023-06-04T09:42:01;6.70;;;2.22;;
55633;SDS011;41504;53.162;6.788;2023-06-04T09:44:31;5.50;;;2.00;;
55633;SDS011;41504;53.162;6.788;2023-06-04T09:47:07;4.75;;;2.22;;
55633;SDS011;41504;53.162;6.788;2023-06-04T09:49:45;6.43;;;2.10;;
55633;SDS011;41504;53.162;6.788;2023-06-04T09:52:13;6.15;;;2.28;;
55633;SDS011;41504;53.162;6.788;2023-06-04T09:54:40;7.57;;;2.10;;
55633;SDS011;41504;53.162;6.788;2023-06-04T09:57:15;5.68;;;2.00;;
55633;SDS011;41504;53.162;6.788;2023-06-04T09:59:49;5.72;;;2.10;;
55633;SDS011;41504;53.162;6.788;2023-06-04T10:02:21;5.15;;;2.20;;
55633;SDS011;41504;53.162;6.788;2023-06-04T10:04:54;7.27;;;2.60;;
55633;SDS011;41504;53.162;6.788;2023-06-04T10:07:24;6.57;;;2.28;;
55633;SDS011;41504;53.162;6.788;2023-06-04T10:09:51;6.80;;;2.20;;
55633;SDS011;41504;53.162;6.788;2023-06-04T10:12:23;7.10;;;2.00;;
55633;SDS011;41504;53.162;6.788;2023-06-04T10:15:01;7.60;;;2.15;;
55633;SDS011;41504;53.162;6.788;2023-06-04T10:17:30;5.57;;;1.98;;
55633;SDS011;41504;53.162;6.788;2023-06-04T10:19:57;6.80;;;2.10;;
55633;SDS011;41504;53.162;6.788;2023-06-04T10:22:24;4.90;;;1.88;;
55633;SDS011;41504;53.162;6.788;2023-06-04T10:24:50;7.05;;;2.08;;
55633;SDS011;41504;53.162;6.788;2023-06-04T10:27:17;5.25;;;2.33;;
55633;SDS011;41504;53.162;6.788;2023-06-04T10:29:45;7.72;;;2.20;;
55633;SDS011;41504;53.162;6.788;2023-06-04T10:32:11;5.85;;;2.03;;
55633;SDS011;41504;53.162;6.788;2023-06-04T10:34:41;3.92;;;1.65;;
55633;SDS011;41504;53.162;6.788;2023-06-04T10:37:08;5.40;;;2.30;;
55633;SDS011;41504;53.162;6.788;2023-06-04T10:39:49;5.60;;;2.15;;
55633;SDS011;41504;53.162;6.788;2023-06-04T10:42:20;5.53;;;2.22;;
55633;SDS011;41504;53.162;6.788;2023-06-04T10:44:50;5.40;;;1.92;;
55633;SDS011;41504;53.162;6.788;2023-06-04T10:47:18;5.78;;;2.00;;
55633;SDS011;41504;53.162;6.788;2023-06-04T10:49:44;5.47;;;2.22;;
55633;SDS011;41504;53.162;6.788;2023-06-04T10:52:12;7.28;;;2.22;;
55633;SDS011;41504;53.162;6.788;2023-06-04T10:54:41;5.45;;;2.13;;
55633;SDS011;41504;53.162;6.788;2023-06-04T10:57:15;4.40;;;2.00;;
55633;SDS011;41504;53.162;6.788;2023-06-04T10:59:54;5.85;;;2.20;;
55633;SDS011;41504;53.162;6.788;2023-06-04T11:02:24;5.22;;;2.00;;
55633;SDS011;41504;53.162;6.788;2023-06-04T11:05:06;5.47;;;2.10;;
55633;SDS011;41504;53.162;6.788;2023-06-04T11:07:42;6.35;;;2.30;;
55633;SDS011;41504;53.162;6.788;2023-06-04T11:10:14;5.82;;;2.20;;
55633;SDS011;41504;53.162;6.788;2023-06-04T11:12:46;7.65;;;2.47;;
55633;SDS011;41504;53.162;6.788;2023-06-04T11:17:54;5.45;;;2.20;;
55633;SDS011;41504;53.162;6.788;2023-06-04T11:20:24;4.97;;;1.80;;
55633;SDS011;41504;53.162;6.788;2023-06-04T11:22:50;4.40;;;2.00;;
55633;SDS011;41504;53.162;6.788;2023-06-04T11:25:19;3.88;;;1.98;;
55633;SDS011;41504;53.162;6.788;2023-06-04T11:27:47;4.35;;;1.73;;
55633;SDS011;41504;53.162;6.788;2023-06-04T11:30:15;5.32;;;2.00;;
55633;SDS011;41504;53.162;6.788;2023-06-04T11:32:41;3.97;;;2.00;;
55633;SDS011;41504;53.162;6.788;2023-06-04T11:35:07;6.40;;;2.50;;
55633;SDS011;41504;53.162;6.788;2023-06-04T11:37:36;5.47;;;2.05;;
55633;SDS011;41504;53.162;6.788;2023-06-04T11:40:03;6.03;;;2.00;;
55633;SDS011;41504;53.162;6.788;2023-06-04T11:42:51;6.68;;;2.03;;
55633;SDS011;41504;53.162;6.788;2023-06-04T11:45:18;5.57;;;2.35;;
55633;SDS011;41504;53.162;6.788;2023-06-04T11:47:49;5.22;;;2.15;;
55633;SDS011;41504;53.162;6.788;2023-06-04T11:50:17;6.15;;;2.20;;
55633;SDS011;41504;53.162;6.788;2023-06-04T11:52:43;4.70;;;1.80;;
55633;SDS011;41504;53.162;6.788;2023-06-04T11:55:12;5.13;;;1.80;;
55633;SDS011;41504;53.162;6.788;2023-06-04T11:57:41;4.88;;;2.00;;
55633;SDS011;41504;53.162;6.788;2023-06-04T12:00:07;5.93;;;2.53;;
55633;SDS011;41504;53.162;6.788;2023-06-04T12:02:37;5.45;;;2.35;;
55633;SDS011;41504;53.162;6.788;2023-06-04T12:05:16;5.85;;;2.03;;
55633;SDS011;41504;53.162;6.788;2023-06-04T12:08:07;4.85;;;1.83;;
55633;SDS011;41504;53.162;6.788;2023-06-04T12:10:40;4.72;;;1.90;;
55633;SDS011;41504;53.162;6.788;2023-06-04T12:13:08;6.50;;;2.17;;
55633;SDS011;41504;53.162;6.788;2023-06-04T12:15:34;5.40;;;1.90;;
55633;SDS011;41504;53.162;6.788;2023-06-04T12:18:01;4.57;;;2.28;;
55633;SDS011;41504;53.162;6.788;2023-06-04T12:20:36;5.75;;;2.80;;
55633;SDS011;41504;53.162;6.788;2023-06-04T12:23:18;6.28;;;2.20;;
55633;SDS011;41504;53.162;6.788;2023-06-04T12:25:49;5.30;;;2.10;;
55633;SDS011;41504;53.162;6.788;2023-06-04T12:28:19;5.03;;;2.05;;
55633;SDS011;41504;53.162;6.788;2023-06-04T12:30:45;7.03;;;2.42;;
55633;SDS011;41504;53.162;6.788;2023-06-04T12:33:11;7.72;;;1.95;;
55633;SDS011;41504;53.162;6.788;2023-06-04T12:35:37;4.57;;;2.08;;
55633;SDS011;41504;53.162;6.788;2023-06-04T12:38:03;5.40;;;2.13;;
55633;SDS011;41504;53.162;6.788;2023-06-04T12:40:30;5.50;;;2.30;;
55633;SDS011;41504;53.162;6.788;2023-06-04T12:42:56;4.97;;;2.20;;
55633;SDS011;41504;53.162;6.788;2023-06-04T12:45:21;5.68;;;2.03;;
55633;SDS011;41504;53.162;6.788;2023-06-04T12:47:47;6.72;;;2.33;;
55633;SDS011;41504;53.162;6.788;2023-06-04T12:50:13;6.22;;;2.20;;
55633;SDS011;41504;53.162;6.788;2023-06-04T12:52:38;5.15;;;2.38;;
55633;SDS011;41504;53.162;6.788;2023-06-04T12:55:04;6.78;;;2.30;;
55633;SDS011;41504;53.162;6.788;2023-06-04T12:57:31;6.10;;;2.03;;
55633;SDS011;41504;53.162;6.788;2023-06-04T12:59:56;4.43;;;2.13;;
55633;SDS011;41504;53.162;6.788;2023-06-04T13:02:22;5.80;;;2.25;;
55633;SDS011;41504;53.162;6.788;2023-06-04T13:04:48;4.80;;;2.10;;
55633;SDS011;41504;53.162;6.788;2023-06-04T13:07:18;4.70;;;2.10;;
55633;SDS011;41504;53.162;6.788;2023-06-04T13:09:44;6.00;;;2.10;;
55633;SDS011;41504;53.162;6.788;2023-06-04T13:12:09;5.63;;;1.80;;
55633;SDS011;41504;53.162;6.788;2023-06-04T13:14:35;6.72;;;2.00;;
55633;SDS011;41504;53.162;6.788;2023-06-04T13:17:01;6.93;;;1.92;;
55633;SDS011;41504;53.162;6.788;2023-06-04T13:19:27;5.75;;;2.10;;
55633;SDS011;41504;53.162;6.788;2023-06-04T13:21:55;5.65;;;2.20;;
55633;SDS011;41504;53.162;6.788;2023-06-04T13:24:22;7.90;;;2.10;;
55633;SDS011;41504;53.162;6.788;2023-06-04T13:26:48;4.78;;;2.00;;
55633;SDS011;41504;53.162;6.788;2023-06-04T13:29:13;4.05;;;1.75;;
55633;SDS011;41504;53.162;6.788;2023-06-04T13:31:41;5.13;;;1.80;;
55633;SDS011;41504;53.162;6.788;2023-06-04T13:34:07;4.85;;;1.70;;
55633;SDS011;41504;53.162;6.788;2023-06-04T13:36:33;5.35;;;1.88;;
55633;SDS011;41504;53.162;6.788;2023-06-04T13:38:58;6.13;;;2.17;;
55633;SDS011;41504;53.162;6.788;2023-06-04T13:41:24;4.38;;;1.83;;
55633;SDS011;41504;53.162;6.788;2023-06-04T13:43:50;5.15;;;1.90;;
55633;SDS011;41504;53.162;6.788;2023-06-04T13:46:19;5.30;;;2.10;;
55633;SDS011;41504;53.162;6.788;2023-06-04T13:48:45;4.65;;;1.95;;
55633;SDS011;41504;53.162;6.788;2023-06-04T13:51:13;5.15;;;2.08;;
55633;SDS011;41504;53.162;6.788;2023-06-04T13:53:39;5.00;;;1.80;;
55633;SDS011;41504;53.162;6.788;2023-06-04T13:56:05;4.32;;;1.75;;
55633;SDS011;41504;53.162;6.788;2023-06-04T13:58:31;4.15;;;1.70;;
55633;SDS011;41504;53.162;6.788;2023-06-04T14:00:57;5.68;;;1.70;;
55633;SDS011;41504;53.162;6.788;2023-06-04T14:03:27;5.78;;;2.10;;
55633;SDS011;41504;53.162;6.788;2023-06-04T14:05:53;3.95;;;2.00;;
55633;SDS011;41504;53.162;6.788;2023-06-04T14:08:19;5.30;;;2.00;;
55633;SDS011;41504;53.162;6.788;2023-06-04T14:10:45;4.82;;;1.80;;
55633;SDS011;41504;53.162;6.788;2023-06-04T14:13:11;6.18;;;1.80;;
55633;SDS011;41504;53.162;6.788;2023-06-04T14:15:37;5.50;;;2.22;;
55633;SDS011;41504;53.162;6.788;2023-06-04T14:18:03;6.63;;;2.10;;
55633;SDS011;41504;53.162;6.788;2023-06-04T14:20:30;4.78;;;2.17;;
55633;SDS011;41504;53.162;6.788;2023-06-04T14:22:56;5.00;;;1.85;;
55633;SDS011;41504;53.162;6.788;2023-06-04T14:25:21;5.75;;;1.83;;
55633;SDS011;41504;53.162;6.788;2023-06-04T14:27:47;6.20;;;1.80;;
55633;SDS011;41504;53.162;6.788;2023-06-04T14:30:13;5.10;;;1.80;;
55633;SDS011;41504;53.162;6.788;2023-06-04T14:32:39;5.72;;;2.10;;
55633;SDS011;41504;53.162;6.788;2023-06-04T14:35:05;5.15;;;1.80;;
55633;SDS011;41504;53.162;6.788;2023-06-04T14:37:31;5.32;;;1.75;;
55633;SDS011;41504;53.162;6.788;2023-06-04T14:39:57;4.78;;;1.88;;
55633;SDS011;41504;53.162;6.788;2023-06-04T14:42:22;4.70;;;1.70;;
55633;SDS011;41504;53.162;6.788;2023-06-04T14:44:48;4.65;;;1.60;;
55633;SDS011;41504;53.162;6.788;2023-06-04T14:47:14;4.15;;;1.75;;
55633;SDS011;41504;53.162;6.788;2023-06-04T14:49:40;6.90;;;2.10;;
55633;SDS011;41504;53.162;6.788;2023-06-04T14:52:05;4.88;;;1.85;;
55633;SDS011;41504;53.162;6.788;2023-06-04T14:54:32;7.60;;;1.90;;
55633;SDS011;41504;53.162;6.788;2023-06-04T14:56:58;6.55;;;1.90;;
55633;SDS011;41504;53.162;6.788;2023-06-04T14:59:24;5.55;;;1.60;;
55633;SDS011;41504;53.162;6.788;2023-06-04T15:01:49;5.90;;;1.90;;
55633;SDS011;41504;53.162;6.788;2023-06-04T15:04:15;4.35;;;2.00;;